Time;durP1;ratioP1;P1;durP2;ratioP2;P2;SDS_P1;SDS_P2;PMS_P1;PMS_P2;Temp;Humidity;BMP_temperature;BMP_pressure;BME280_temperature;BME280_humidity;BME280_pressure;Samples;Min_cycle;Max_cycle;Signal;HPM_P1;HPM_P2
2022/07/30 00:00:03;;;;;;;8.80;8.00;;;21.70;98.20;;;;;;4916838;29;20407;-72
2022/07/30 00:02:29;;;;;;;8.37;7.73;;;21.70;98.20;;;;;;4916040;29;20210;-73
2022/07/30 00:04:55;;;;;;;8.80;8.20;;;21.70;98.30;;;;;;4916838;29;20415;-72
2022/07/30 00:07:20;;;;;;;9.40;8.10;;;21.70;98.20;;;;;;4915925;29;20174;-72
2022/07/30 00:09:46;;;;;;;9.30;8.60;;;21.60;98.20;;;;;;4914795;29;20198;-72
2022/07/30 00:12:12;;;;;;;9.07;8.33;;;21.60;98.50;;;;;;4915624;29;20185;-73
2022/07/30 00:14:37;;;;;;;9.13;8.33;;;21.60;98.60;;;;;;4915416;29;20194;-72
2022/07/30 00:17:04;;;;;;;8.40;7.50;;;21.50;98.60;;;;;;4915034;29;20179;-76
2022/07/30 00:19:29;;;;;;;10.43;8.63;;;21.50;98.70;;;;;;4916028;29;20182;-72
2022/07/30 00:21:55;;;;;;;12.43;8.93;;;21.40;98.60;;;;;;4882927;29;20474;-72
2022/07/30 00:24:22;;;;;;;10.00;9.20;;;21.30;98.50;;;;;;4915639;29;20758;-72
2022/07/30 00:26:47;;;;;;;9.47;8.77;;;21.30;98.50;;;;;;4916357;29;20403;-72
2022/07/30 00:29:14;;;;;;;9.00;8.40;;;21.30;98.70;;;;;;4915109;29;20497;-72
2022/07/30 00:31:39;;;;;;;8.80;8.00;;;21.20;98.80;;;;;;4916079;29;20187;-72
2022/07/30 00:34:05;;;;;;;8.87;8.27;;;21.20;98.90;;;;;;4916082;29;20446;-75
2022/07/30 00:36:31;;;;;;;9.70;9.00;;;21.20;99.00;;;;;;4915616;29;20183;-72
2022/07/30 00:38:57;;;;;;;8.90;8.20;;;21.10;99.10;;;;;;4915990;29;20653;-72
2022/07/30 00:41:23;;;;;;;8.73;8.13;;;21.10;99.30;;;;;;4915436;29;20417;-72
2022/07/30 00:43:49;;;;;;;9.30;8.53;;;21.00;99.20;;;;;;4915252;29;20277;-72
2022/07/30 00:46:15;;;;;;;8.60;7.67;;;21.00;99.30;;;;;;4914379;29;20430;-72
2022/07/30 00:48:41;;;;;;;7.80;7.30;;;21.00;99.20;;;;;;4916124;29;20265;-72
2022/07/30 00:51:07;;;;;;;8.90;8.07;;;20.90;99.30;;;;;;4915712;29;20189;-75
2022/07/30 00:53:34;;;;;;;9.10;8.23;;;20.90;99.30;;;;;;4915583;29;20446;-72
2022/07/30 00:56:00;;;;;;;9.77;8.97;;;20.90;99.40;;;;;;4916036;29;20253;-72
2022/07/30 00:58:25;;;;;;;9.13;8.30;;;20.80;99.50;;;;;;4914893;29;20536;-72
2022/07/30 01:00:52;;;;;;;9.23;8.50;;;20.80;99.60;;;;;;4915944;29;20506;-72
2022/07/30 01:03:17;;;;;;;9.70;8.60;;;20.80;99.70;;;;;;4913736;29;20206;-72
2022/07/30 01:05:44;;;;;;;9.50;8.80;;;20.70;99.80;;;;;;4915539;29;20437;-72
2022/07/30 01:08:09;;;;;;;8.90;8.10;;;20.70;99.80;;;;;;4915120;29;20179;-76
2022/07/30 01:10:35;;;;;;;8.90;8.10;;;20.70;99.80;;;;;;4916256;29;20470;-72
2022/07/30 01:13:02;;;;;;;8.83;8.03;;;20.70;99.90;;;;;;4915890;29;20178;-72
2022/07/30 01:15:29;;;;;;;8.30;7.70;;;20.70;99.90;;;;;;4914950;29;20233;-72
2022/07/30 01:17:59;;;;;;;9.97;9.17;;;20.60;99.60;;;;;;4915365;29;20448;-72
2022/07/30 01:20:59;;;;;;;9.07;8.33;;;20.60;99.50;;;;;;4915076;29;20446;-72
2022/07/30 01:23:34;;;;;;;8.53;7.83;;;20.60;99.70;;;;;;4914807;29;20458;-72
2022/07/30 01:26:06;;;;;;;9.43;8.63;;;20.50;99.90;;;;;;4915798;29;20796;-72
2022/07/30 01:28:36;;;;;;;9.70;8.80;;;20.50;99.90;;;;;;4897511;29;20453;-72
2022/07/30 01:31:04;;;;;;;9.37;8.70;;;20.40;99.90;;;;;;4915870;29;20467;-73
2022/07/30 01:33:31;;;;;;;13.63;9.73;;;20.50;99.90;;;;;;4912959;29;20537;-72
2022/07/30 01:35:58;;;;;;;9.13;8.43;;;20.50;99.90;;;;;;4914560;29;20482;-72
2022/07/30 01:38:26;;;;;;;9.90;8.90;;;20.40;99.90;;;;;;4914717;29;20921;-72
2022/07/30 01:40:53;;;;;;;9.87;9.00;;;20.40;99.90;;;;;;4915377;29;20411;-72
2022/07/30 01:43:21;;;;;;;9.87;9.17;;;20.40;99.90;;;;;;4913835;29;20481;-72
2022/07/30 01:45:49;;;;;;;12.13;8.57;;;20.30;99.90;;;;;;4914409;29;21050;-72
2022/07/30 01:48:18;;;;;;;10.00;9.03;;;20.30;99.90;;;;;;4914403;29;20433;-73
2022/07/30 01:50:47;;;;;;;8.80;8.20;;;20.30;99.90;;;;;;4915823;29;20407;-72
2022/07/30 01:53:18;;;;;;;9.60;8.73;;;20.30;99.90;;;;;;4914697;29;20750;-75
2022/07/30 01:55:44;;;;;;;9.50;8.70;;;20.20;99.90;;;;;;4915314;29;20783;-72
2022/07/30 01:58:12;;;;;;;9.43;8.80;;;20.20;99.90;;;;;;4917354;29;20450;-75
2022/07/30 02:00:41;;;;;;;9.90;9.20;;;20.10;99.90;;;;;;4918713;29;20414;-72
2022/07/30 02:03:09;;;;;;;9.90;9.10;;;20.10;99.90;;;;;;4918210;29;20602;-72
2022/07/30 02:05:36;;;;;;;10.00;9.00;;;20.10;99.90;;;;;;4918538;29;20419;-72
2022/07/30 02:08:09;;;;;;;9.73;8.90;;;20.10;99.90;;;;;;4918415;29;20426;-72
2022/07/30 02:11:01;;;;;;;9.63;8.93;;;20.00;99.90;;;;;;4918126;29;20446;-72
2022/07/30 02:13:28;;;;;;;9.50;8.70;;;20.00;99.90;;;;;;4916803;29;20502;-72
2022/07/30 02:16:02;;;;;;;10.07;9.20;;;19.90;99.90;;;;;;4918667;29;20549;-72
2022/07/30 02:18:37;;;;;;;10.33;9.30;;;19.90;99.90;;;;;;4917880;29;20474;-72
2022/07/30 02:21:07;;;;;;;9.93;8.97;;;19.90;99.90;;;;;;4918685;29;20399;-72
2022/07/30 02:23:37;;;;;;;10.10;9.23;;;19.90;99.90;;;;;;4917721;29;20462;-72
2022/07/30 02:26:04;;;;;;;9.73;8.80;;;19.90;99.90;;;;;;4917413;29;20486;-72
2022/07/30 02:28:35;;;;;;;10.73;9.93;;;19.80;99.90;;;;;;4917252;29;20427;-72
2022/07/30 02:31:01;;;;;;;8.60;8.07;;;19.80;99.90;;;;;;4915927;29;20448;-72
2022/07/30 02:33:35;;;;;;;10.17;9.37;;;19.70;99.90;;;;;;4916952;29;20903;-72
2022/07/30 02:36:02;;;;;;;10.67;9.67;;;19.70;99.90;;;;;;4918407;29;20413;-73
2022/07/30 02:38:29;;;;;;;10.90;9.90;;;19.70;99.90;;;;;;4916356;29;20950;-72
2022/07/30 02:40:59;;;;;;;9.20;8.40;;;19.60;99.90;;;;;;4918166;29;20414;-72
2022/07/30 02:43:26;;;;;;;10.50;9.70;;;19.60;99.90;;;;;;4917129;29;20473;-72
2022/07/30 02:45:52;;;;;;;10.30;9.50;;;19.50;99.90;;;;;;4917999;29;20411;-72
2022/07/30 02:48:20;;;;;;;10.03;9.33;;;19.40;99.90;;;;;;4916889;29;20432;-73
2022/07/30 02:50:49;;;;;;;10.20;9.30;;;19.40;99.90;;;;;;4917989;29;20772;-72
2022/07/30 02:53:17;;;;;;;9.87;9.07;;;19.40;99.90;;;;;;4917496;29;20521;-76
2022/07/30 02:55:45;;;;;;;9.90;9.20;;;19.40;99.90;;;;;;4915874;29;20513;-72
2022/07/30 02:58:18;;;;;;;9.93;9.23;;;19.40;99.90;;;;;;4917837;29;20828;-73
2022/07/30 03:00:45;;;;;;;10.13;9.33;;;19.40;99.90;;;;;;4916570;29;20510;-72
2022/07/30 03:03:12;;;;;;;10.50;9.80;;;19.40;99.90;;;;;;4917933;29;20505;-72
2022/07/30 03:05:40;;;;;;;8.90;8.20;;;19.40;99.90;;;;;;4916961;29;20415;-72
2022/07/30 03:08:07;;;;;;;9.67;8.73;;;19.40;99.90;;;;;;4932357;29;20433;-72
2022/07/30 03:10:34;;;;;;;10.17;9.30;;;19.40;99.90;;;;;;4930421;29;20410;-72
2022/07/30 03:13:03;;;;;;;9.67;9.07;;;19.40;99.90;;;;;;4916965;29;20797;-72
2022/07/30 03:15:32;;;;;;;9.90;9.10;;;19.40;99.90;;;;;;4914912;29;20473;-72
2022/07/30 03:17:59;;;;;;;10.07;9.30;;;19.40;99.90;;;;;;4917080;29;20454;-72
2022/07/30 03:20:29;;;;;;;10.87;10.07;;;19.30;99.90;;;;;;4916767;29;20407;-72
2022/07/30 03:22:57;;;;;;;9.43;8.73;;;19.30;99.90;;;;;;4917191;29;20502;-72
2022/07/30 03:25:26;;;;;;;9.83;8.83;;;19.30;99.90;;;;;;4916358;29;20415;-72
2022/07/30 03:27:56;;;;;;;8.77;8.03;;;19.30;99.90;;;;;;4900164;29;20981;-72
2022/07/30 03:30:24;;;;;;;9.63;8.93;;;19.30;99.90;;;;;;4915986;29;20439;-73
2022/07/30 03:32:52;;;;;;;9.23;8.53;;;19.20;99.90;;;;;;4916816;29;20777;-72
2022/07/30 03:35:20;;;;;;;10.10;9.20;;;19.20;99.90;;;;;;4917352;29;20442;-73
2022/07/30 03:37:47;;;;;;;9.60;8.90;;;19.20;99.90;;;;;;4916432;29;20906;-72
2022/07/30 03:40:14;;;;;;;9.23;8.43;;;19.20;99.90;;;;;;4916585;29;20436;-72
2022/07/30 03:42:40;;;;;;;9.73;8.93;;;19.30;99.90;;;;;;4916193;29;20462;-72
2022/07/30 03:45:07;;;;;;;9.37;8.67;;;19.20;99.90;;;;;;4917678;29;20441;-72
2022/07/30 03:47:37;;;;;;;10.37;9.67;;;19.20;99.90;;;;;;4916860;29;20431;-72
2022/07/30 03:50:04;;;;;;;9.50;8.70;;;19.20;99.90;;;;;;4916185;29;20410;-72
2022/07/30 03:52:41;;;;;;;9.57;8.77;;;19.20;99.90;;;;;;4916497;29;20875;-72
2022/07/30 03:55:09;;;;;;;9.63;8.93;;;19.20;99.90;;;;;;4917410;29;20490;-72
2022/07/30 03:57:36;;;;;;;9.20;8.53;;;19.10;99.90;;;;;;4916716;29;20414;-72
2022/07/30 04:00:11;;;;;;;10.30;9.23;;;19.10;99.90;;;;;;4916181;29;20430;-72
2022/07/30 04:02:41;;;;;;;9.23;8.53;;;19.10;99.90;;;;;;4916624;29;20521;-72
2022/07/30 04:05:07;;;;;;;10.20;9.40;;;19.10;99.90;;;;;;4915973;29;20408;-72
2022/07/30 04:07:33;;;;;;;10.20;9.23;;;19.10;99.90;;;;;;4914314;29;20474;-73
2022/07/30 04:09:59;;;;;;;10.53;9.77;;;19.10;99.90;;;;;;4916975;29;20450;-72
2022/07/30 04:12:25;;;;;;;9.47;8.67;;;19.20;99.90;;;;;;4930318;29;20182;-72
2022/07/30 04:14:52;;;;;;;11.60;10.67;;;19.10;99.90;;;;;;4916457;29;20246;-72
2022/07/30 04:17:24;;;;;;;10.97;10.17;;;19.10;99.90;;;;;;4915400;29;20243;-75
2022/07/30 04:19:55;;;;;;;9.73;9.10;;;19.10;99.90;;;;;;4916814;29;20793;-72
2022/07/30 04:22:26;;;;;;;10.40;9.60;;;19.10;99.90;;;;;;4915946;29;20760;-73
2022/07/30 04:24:52;;;;;;;10.80;9.87;;;19.10;99.90;;;;;;4916686;29;20407;-72
2022/07/30 04:27:19;;;;;;;12.40;10.07;;;19.10;99.90;;;;;;4916176;29;20418;-74
2022/07/30 04:29:45;;;;;;;10.90;10.00;;;19.10;99.90;;;;;;4915624;29;20438;-72
2022/07/30 04:32:12;;;;;;;10.63;9.83;;;19.20;99.90;;;;;;4916403;29;20963;-72
2022/07/30 04:34:48;;;;;;;12.23;11.33;;;19.20;99.90;;;;;;4916093;29;21028;-72
2022/07/30 04:37:16;;;;;;;10.90;10.00;;;19.20;99.90;;;;;;4930990;29;20425;-72
2022/07/30 04:39:41;;;;;;;11.07;10.17;;;19.20;99.90;;;;;;4915083;29;20419;-72
2022/07/30 04:42:07;;;;;;;11.37;10.57;;;19.20;99.90;;;;;;4916109;29;20473;-72
2022/07/30 04:44:33;;;;;;;11.93;10.80;;;19.20;99.90;;;;;;4930009;29;20190;-72
2022/07/30 04:46:59;;;;;;;11.20;10.30;;;19.20;99.90;;;;;;4916423;29;20185;-72
2022/07/30 04:49:26;;;;;;;10.30;9.50;;;19.20;99.90;;;;;;4915373;29;20186;-73
2022/07/30 04:51:54;;;;;;;12.50;11.17;;;19.20;99.90;;;;;;4916046;29;20784;-72
2022/07/30 04:54:21;;;;;;;13.30;11.90;;;19.20;99.90;;;;;;4914811;29;20790;-73
2022/07/30 04:56:48;;;;;;;12.33;11.43;;;19.10;99.90;;;;;;4915723;29;20466;-73
2022/07/30 04:59:16;;;;;;;12.20;11.20;;;19.10;99.90;;;;;;4914682;29;20434;-72
2022/07/30 05:01:45;;;;;;;10.17;9.47;;;19.10;99.90;;;;;;4914142;29;20434;-72
2022/07/30 05:04:12;;;;;;;10.70;9.70;;;19.10;99.90;;;;;;4895897;29;20459;-73
2022/07/30 05:06:40;;;;;;;10.40;9.60;;;19.10;99.90;;;;;;4909911;29;20438;-72
2022/07/30 05:09:05;;;;;;;12.00;11.10;;;19.10;99.90;;;;;;4915885;29;20623;-72
2022/07/30 05:11:31;;;;;;;12.40;11.40;;;19.20;99.90;;;;;;4915299;29;20517;-73
2022/07/30 05:13:57;;;;;;;13.03;11.73;;;19.20;99.90;;;;;;4915844;29;20230;-72
2022/07/30 05:16:23;;;;;;;11.90;11.00;;;19.20;99.90;;;;;;4929040;29;21397;-73
2022/07/30 05:18:49;;;;;;;13.70;12.53;;;19.30;99.90;;;;;;4916082;29;20186;-72
2022/07/30 05:21:15;;;;;;;12.83;11.73;;;19.30;99.90;;;;;;4899061;29;20936;-73
2022/07/30 05:23:41;;;;;;;14.07;12.77;;;19.40;99.90;;;;;;4915553;29;20757;-72
2022/07/30 05:26:07;;;;;;;15.53;14.13;;;19.40;99.90;;;;;;4916495;29;20426;-72
2022/07/30 05:28:33;;;;;;;14.13;12.80;;;19.40;99.90;;;;;;4914304;29;20442;-73
2022/07/30 05:30:59;;;;;;;13.60;12.50;;;19.50;99.90;;;;;;4915946;29;20213;-73
2022/07/30 05:33:24;;;;;;;14.73;13.23;;;19.60;99.90;;;;;;4917646;29;20454;-74
2022/07/30 05:35:50;;;;;;;13.53;12.53;;;19.60;99.90;;;;;;4919328;29;20266;-73
2022/07/30 05:38:16;;;;;;;14.50;12.83;;;19.70;99.90;;;;;;4919383;29;20194;-73
2022/07/30 05:40:43;;;;;;;14.83;13.13;;;19.80;99.90;;;;;;4917820;29;20417;-73
2022/07/30 05:43:09;;;;;;;13.57;12.47;;;19.80;99.90;;;;;;4918969;29;20490;-73
2022/07/30 05:45:35;;;;;;;14.20;12.90;;;19.80;99.90;;;;;;4904031;29;20431;-73
2022/07/30 05:48:01;;;;;;;14.43;13.13;;;19.90;99.90;;;;;;4901996;29;20788;-73
2022/07/30 05:50:26;;;;;;;14.50;13.03;;;19.90;99.90;;;;;;4917849;29;20516;-72
2022/07/30 05:52:52;;;;;;;15.50;14.00;;;20.10;99.90;;;;;;4902189;29;20186;-71
2022/07/30 05:55:18;;;;;;;15.30;13.73;;;20.30;99.90;;;;;;4916218;29;20333;-70
2022/07/30 05:57:44;;;;;;;14.97;13.57;;;20.60;99.90;;;;;;4918143;29;20790;-71
2022/07/30 06:00:10;;;;;;;17.07;15.30;;;20.80;99.90;;;;;;4917477;29;20189;-71
2022/07/30 06:02:38;;;;;;;16.37;14.83;;;20.90;99.90;;;;;;4918130;29;20217;-71
2022/07/30 06:05:04;;;;;;;17.33;15.73;;;21.10;99.90;;;;;;4901011;29;20438;-71
2022/07/30 06:07:30;;;;;;;17.03;15.63;;;21.30;99.90;;;;;;4899575;29;20411;-71
2022/07/30 06:09:59;;;;;;;16.40;15.00;;;21.50;99.90;;;;;;4900431;29;20731;-71
2022/07/30 06:12:29;;;;;;;16.90;15.40;;;21.60;99.90;;;;;;4913920;29;20179;-74
2022/07/30 06:14:54;;;;;;;17.07;15.40;;;21.70;99.90;;;;;;4919077;29;20842;-71
2022/07/30 06:17:20;;;;;;;18.17;16.47;;;21.80;99.90;;;;;;4919240;29;20486;-71
2022/07/30 06:19:46;;;;;;;17.17;15.47;;;21.90;99.90;;;;;;4918380;29;20174;-71
2022/07/30 06:22:12;;;;;;;15.70;14.07;;;22.00;99.90;;;;;;4918676;29;20174;-71
2022/07/30 06:24:37;;;;;;;13.00;11.20;;;22.10;99.90;;;;;;4918205;29;20579;-72
2022/07/30 06:27:03;;;;;;;13.17;11.97;;;22.10;99.70;;;;;;4918878;29;20501;-72
2022/07/30 06:29:29;;;;;;;18.10;16.07;;;22.00;99.90;;;;;;4917447;29;20178;-72
2022/07/30 06:31:55;;;;;;;17.00;15.20;;;22.00;99.90;;;;;;4918123;29;20461;-72
2022/07/30 06:34:21;;;;;;;16.20;14.60;;;22.00;99.90;;;;;;4917476;29;20198;-72
2022/07/30 06:36:48;;;;;;;16.13;14.83;;;22.00;99.90;;;;;;4899318;29;20498;-72
2022/07/30 06:39:14;;;;;;;10.67;8.87;;;22.10;99.90;;;;;;4907213;29;20187;-72
2022/07/30 06:41:39;;;;;;;17.73;16.27;;;22.10;99.90;;;;;;4917793;29;20802;-72
2022/07/30 06:44:05;;;;;;;16.70;15.20;;;22.10;99.90;;;;;;4931907;29;20477;-72
2022/07/30 06:46:31;;;;;;;17.23;15.50;;;22.00;99.90;;;;;;4917895;29;20234;-72
2022/07/30 06:48:57;;;;;;;17.90;16.03;;;21.90;99.90;;;;;;4916927;29;20281;-72
2022/07/30 06:51:22;;;;;;;18.27;16.67;;;21.80;99.90;;;;;;4924904;29;20242;-73
2022/07/30 06:53:48;;;;;;;18.17;16.10;;;21.80;99.90;;;;;;4917127;29;20194;-72
2022/07/30 06:56:14;;;;;;;17.20;15.60;;;21.90;99.90;;;;;;4918055;29;20270;-71
2022/07/30 06:58:40;;;;;;;16.43;14.73;;;22.10;99.90;;;;;;4916928;29;20192;-69
2022/07/30 07:01:06;;;;;;;17.87;15.57;;;22.10;99.90;;;;;;4916794;29;20446;-70
2022/07/30 07:03:31;;;;;;;14.93;13.37;;;22.20;99.90;;;;;;4916722;29;20253;-71
2022/07/30 07:05:57;;;;;;;18.80;17.00;;;22.20;99.90;;;;;;4917475;29;20194;-71
2022/07/30 07:08:23;;;;;;;15.00;13.17;;;22.30;99.90;;;;;;4918137;29;20175;-68
2022/07/30 07:10:48;;;;;;;16.07;14.37;;;22.40;99.90;;;;;;4916553;29;20266;-73
2022/07/30 07:13:14;;;;;;;21.67;17.77;;;22.40;99.90;;;;;;4917969;29;20197;-72
2022/07/30 07:15:41;;;;;;;18.23;16.43;;;22.50;99.90;;;;;;4916394;29;20234;-69
2022/07/30 07:18:07;;;;;;;17.80;15.97;;;22.60;99.90;;;;;;4917099;29;20447;-71
2022/07/30 07:20:33;;;;;;;17.00;15.40;;;22.60;99.90;;;;;;4915482;29;20939;-71
2022/07/30 07:22:59;;;;;;;20.00;16.97;;;22.70;99.90;;;;;;4916333;29;20474;-74
2022/07/30 07:25:26;;;;;;;16.80;14.90;;;22.70;99.90;;;;;;4898914;29;20424;-72
2022/07/30 07:27:51;;;;;;;18.97;16.57;;;22.70;99.90;;;;;;4918296;29;20438;-72
2022/07/30 07:30:17;;;;;;;18.10;16.30;;;22.80;99.90;;;;;;4917567;29;20443;-72
2022/07/30 07:32:43;;;;;;;16.00;14.43;;;22.90;99.90;;;;;;4930931;29;20565;-72
2022/07/30 07:35:08;;;;;;;19.00;15.23;;;23.00;99.90;;;;;;4917265;29;20186;-72
2022/07/30 07:37:34;;;;;;;21.27;17.63;;;23.10;99.90;;;;;;4915827;29;20284;-72
2022/07/30 07:40:00;;;;;;;19.93;17.67;;;23.20;99.90;;;;;;4916087;29;20186;-72
2022/07/30 07:42:26;;;;;;;20.30;17.33;;;23.30;99.90;;;;;;4916775;29;20666;-72
2022/07/30 07:44:51;;;;;;;21.27;18.20;;;23.30;99.50;;;;;;4915324;29;20673;-72
2022/07/30 07:47:17;;;;;;;13.80;12.47;;;23.40;99.00;;;;;;4917102;29;20190;-71
2022/07/30 07:49:43;;;;;;;22.60;20.30;;;23.40;98.40;;;;;;4916843;29;20178;-71
2022/07/30 07:52:09;;;;;;;18.73;17.03;;;23.50;98.70;;;;;;4917447;29;20182;-71
2022/07/30 07:54:34;;;;;;;21.93;18.67;;;23.60;98.70;;;;;;4916117;29;20186;-71
2022/07/30 07:57:00;;;;;;;20.30;18.20;;;23.60;98.60;;;;;;4931975;29;20210;-71
2022/07/30 07:59:26;;;;;;;20.80;18.10;;;23.80;98.70;;;;;;4915119;29;20587;-71
2022/07/30 08:01:51;;;;;;;21.20;18.63;;;23.80;98.20;;;;;;4915110;29;20186;-71
2022/07/30 08:04:17;;;;;;;20.13;17.97;;;23.90;98.30;;;;;;4917223;29;20214;-71
2022/07/30 08:06:43;;;;;;;21.03;18.60;;;24.00;98.10;;;;;;4916543;29;20185;-71
2022/07/30 08:09:09;;;;;;;21.37;18.77;;;24.10;97.30;;;;;;4931545;29;20182;-71
2022/07/30 08:11:34;;;;;;;18.40;16.60;;;24.10;96.90;;;;;;4916239;29;20628;-71
2022/07/30 08:14:00;;;;;;;19.77;17.80;;;24.20;96.80;;;;;;4917518;29;20307;-71
2022/07/30 08:16:26;;;;;;;24.40;20.93;;;24.20;96.70;;;;;;4916611;29;20698;-71
2022/07/30 08:18:51;;;;;;;22.87;20.53;;;24.30;96.70;;;;;;4916336;29;20250;-72
2022/07/30 08:21:17;;;;;;;23.10;20.77;;;24.30;96.50;;;;;;4915667;29;20273;-72
2022/07/30 08:23:43;;;;;;;24.43;22.10;;;24.40;96.60;;;;;;4914857;29;20214;-71
2022/07/30 08:26:08;;;;;;;24.77;22.23;;;24.40;96.20;;;;;;4916502;29;20182;-71
2022/07/30 08:28:35;;;;;;;26.67;23.90;;;24.40;96.60;;;;;;4916367;29;20241;-71
2022/07/30 08:31:01;;;;;;;22.40;20.00;;;24.40;96.10;;;;;;4915967;29;20197;-71
2022/07/30 08:33:26;;;;;;;24.27;21.77;;;24.50;95.90;;;;;;4916135;29;20435;-71
2022/07/30 08:35:52;;;;;;;25.67;22.87;;;24.50;96.00;;;;;;4916039;29;20179;-71
2022/07/30 08:38:18;;;;;;;24.60;22.17;;;24.60;96.00;;;;;;4916408;29;20178;-73
2022/07/30 08:40:45;;;;;;;27.93;24.67;;;24.60;95.60;;;;;;4916306;29;20414;-73
2022/07/30 08:43:11;;;;;;;26.33;23.53;;;24.70;96.10;;;;;;4916276;29;20224;-72
2022/07/30 08:45:37;;;;;;;27.07;24.17;;;24.70;95.40;;;;;;4915814;29;20505;-73
2022/07/30 08:48:07;;;;;;;26.50;22.03;;;24.70;95.70;;;;;;4916729;29;20234;-73
2022/07/30 08:50:34;;;;;;;18.57;16.80;;;24.70;95.10;;;;;;4916380;29;20411;-72
2022/07/30 08:53:00;;;;;;;24.60;22.00;;;24.80;95.30;;;;;;4916450;29;20792;-72
2022/07/30 08:55:26;;;;;;;25.57;23.10;;;24.90;95.50;;;;;;4916429;29;20529;-72
2022/07/30 08:57:52;;;;;;;20.47;18.47;;;25.00;94.70;;;;;;4915806;29;20498;-73
2022/07/30 09:00:18;;;;;;;25.80;20.60;;;25.00;94.70;;;;;;4914876;29;20197;-74
2022/07/30 09:02:44;;;;;;;24.43;21.87;;;25.10;94.20;;;;;;4912520;29;20210;-73
2022/07/30 09:05:11;;;;;;;24.00;20.10;;;25.10;94.30;;;;;;4916154;29;20430;-71
2022/07/30 09:07:37;;;;;;;23.40;20.00;;;25.20;94.50;;;;;;4917337;29;20841;-73
2022/07/30 09:10:05;;;;;;;23.00;20.60;;;25.20;93.60;;;;;;4919345;29;20457;-72
2022/07/30 09:12:36;;;;;;;25.07;20.80;;;25.30;93.20;;;;;;4920550;29;20414;-72
2022/07/30 09:15:01;;;;;;;23.90;21.23;;;25.30;93.10;;;;;;4919411;29;20462;-72
2022/07/30 09:17:27;;;;;;;24.33;21.77;;;25.40;92.80;;;;;;4919831;29;20926;-72
2022/07/30 09:20:04;;;;;;;25.00;22.30;;;25.50;91.90;;;;;;4918332;29;20189;-73
2022/07/30 09:22:45;;;;;;;28.47;22.40;;;25.60;92.50;;;;;;4919714;29;20631;-73
2022/07/30 09:25:10;;;;;;;24.93;20.80;;;25.60;91.70;;;;;;4914194;29;20782;-72
2022/07/30 09:27:44;;;;;;;26.33;23.23;;;25.70;91.60;;;;;;4914773;29;20415;-72
2022/07/30 09:30:10;;;;;;;27.17;22.20;;;25.80;92.10;;;;;;4917841;29;20345;-72
2022/07/30 09:32:54;;;;;;;27.87;22.20;;;25.90;91.60;;;;;;4918333;29;20438;-75
2022/07/30 09:35:21;;;;;;;28.00;21.13;;;26.00;91.30;;;;;;4919357;29;20481;-72
2022/07/30 09:37:58;;;;;;;26.13;21.43;;;26.10;90.70;;;;;;4922873;29;20452;-73
2022/07/30 09:40:24;;;;;;;26.60;21.73;;;26.20;89.00;;;;;;4917719;29;20468;-76
2022/07/30 09:43:07;;;;;;;24.80;20.67;;;26.30;87.30;;;;;;4917465;29;20466;-73
2022/07/30 09:45:34;;;;;;;21.27;18.97;;;26.40;87.20;;;;;;4919102;29;20500;-73
2022/07/30 09:48:00;;;;;;;28.40;22.30;;;26.40;88.00;;;;;;4917877;29;20441;-73
2022/07/30 09:50:26;;;;;;;24.37;20.80;;;26.60;87.40;;;;;;4917912;29;20433;-73
2022/07/30 09:52:54;;;;;;;23.80;18.80;;;26.70;87.90;;;;;;4917879;29;20453;-73
2022/07/30 09:55:34;;;;;;;24.40;19.00;;;26.80;86.80;;;;;;4917411;29;20437;-75
2022/07/30 09:58:03;;;;;;;24.53;18.80;;;26.80;82.80;;;;;;4918134;29;20477;-74
2022/07/30 10:00:31;;;;;;;19.67;16.80;;;26.90;82.30;;;;;;4916373;29;20582;-73
2022/07/30 10:02:59;;;;;;;15.93;14.23;;;27.00;83.40;;;;;;4916611;29;20499;-72
2022/07/30 10:05:25;;;;;;;21.77;18.67;;;27.00;80.60;;;;;;4918393;29;20938;-73
2022/07/30 10:07:52;;;;;;;23.57;18.53;;;27.10;81.40;;;;;;4917539;29;20794;-71
2022/07/30 10:10:20;;;;;;;17.47;15.47;;;27.20;81.40;;;;;;4917925;29;20822;-70
2022/07/30 10:12:49;;;;;;;21.63;16.77;;;27.20;80.00;;;;;;4913192;29;20442;-71
2022/07/30 10:15:19;;;;;;;20.97;17.13;;;27.30;79.00;;;;;;4917500;29;20474;-74
2022/07/30 10:17:47;;;;;;;14.30;12.80;;;27.30;79.00;;;;;;4912958;29;20986;-71
2022/07/30 10:20:13;;;;;;;18.50;14.47;;;27.40;76.00;;;;;;4900170;29;20975;-73
2022/07/30 10:22:41;;;;;;;106.03;94.00;;;27.40;77.20;;;;;;4911285;29;20454;-76
2022/07/30 10:25:07;;;;;;;31.93;27.47;;;27.50;77.20;;;;;;4933015;29;20430;-73
2022/07/30 10:27:33;;;;;;;20.10;18.00;;;27.50;78.30;;;;;;4932532;29;20422;-72
2022/07/30 10:30:00;;;;;;;17.77;15.97;;;27.50;75.70;;;;;;4916174;29;20778;-72
2022/07/30 10:32:26;;;;;;;17.70;15.97;;;27.60;76.00;;;;;;4917314;29;20496;-71
2022/07/30 10:34:52;;;;;;;16.40;14.80;;;27.60;77.20;;;;;;4914919;29;20448;-72
2022/07/30 10:37:21;;;;;;;13.97;12.57;;;27.60;77.10;;;;;;4917476;29;20852;-72
2022/07/30 10:39:56;;;;;;;17.03;14.83;;;27.70;76.10;;;;;;4917725;29;20415;-72
2022/07/30 10:42:41;;;;;;;14.70;13.10;;;27.70;75.00;;;;;;4918266;29;20413;-72
2022/07/30 10:45:21;;;;;;;18.63;13.53;;;27.80;76.10;;;;;;4913911;29;20434;-72
2022/07/30 10:47:49;;;;;;;17.60;15.90;;;27.80;74.20;;;;;;4917129;29;20430;-72
2022/07/30 10:50:27;;;;;;;15.53;14.03;;;27.90;76.50;;;;;;4918022;29;20414;-73
2022/07/30 10:52:56;;;;;;;15.20;13.70;;;27.90;76.90;;;;;;4917345;29;20430;-72
2022/07/30 10:55:24;;;;;;;21.67;19.30;;;28.00;77.90;;;;;;4915862;29;20489;-72
2022/07/30 10:58:12;;;;;;;393.50;334.90;;;28.10;79.40;;;;;;4930865;29;20953;-72
2022/07/30 11:00:52;;;;;;;34.33;21.60;;;28.20;78.60;;;;;;4913806;29;20526;-71
2022/07/30 11:03:18;;;;;;;14.77;13.37;;;28.20;77.80;;;;;;4916822;29;20462;-72
2022/07/30 11:05:49;;;;;;;18.33;13.83;;;28.30;78.90;;;;;;4914264;29;20482;-72
2022/07/30 11:08:36;;;;;;;15.10;13.43;;;28.30;77.50;;;;;;4916704;29;20190;-72
2022/07/30 11:11:05;;;;;;;15.43;13.70;;;28.40;75.10;;;;;;4916365;29;20422;-72
2022/07/30 11:14:00;;;;;;;16.30;14.67;;;28.50;76.80;;;;;;4932904;29;20531;-72
2022/07/30 11:16:31;;;;;;;13.77;12.47;;;28.60;77.20;;;;;;4931153;29;20520;-71
2022/07/30 11:19:03;;;;;;;12.83;11.73;;;28.70;76.40;;;;;;4932773;29;20421;-71
2022/07/30 11:21:29;;;;;;;11.93;10.83;;;28.80;75.40;;;;;;4929627;29;20449;-72
2022/07/30 11:23:55;;;;;;;13.90;12.60;;;28.90;72.90;;;;;;4902498;29;20464;-72
2022/07/30 11:26:38;;;;;;;10.40;9.60;;;28.90;73.60;;;;;;4931856;29;20441;-72
2022/07/30 11:29:05;;;;;;;11.77;10.67;;;29.00;74.20;;;;;;4932461;29;20190;-72
2022/07/30 11:31:33;;;;;;;10.83;9.87;;;29.10;74.00;;;;;;4931078;29;20454;-71
2022/07/30 11:34:17;;;;;;;12.43;11.33;;;29.10;72.90;;;;;;4869913;29;21017;-72
2022/07/30 11:37:09;;;;;;;13.87;12.67;;;29.10;73.20;;;;;;4932145;29;20433;-72
2022/07/30 11:39:57;;;;;;;13.20;12.10;;;29.10;72.30;;;;;;4932740;29;20452;-71
2022/07/30 11:42:33;;;;;;;14.13;12.53;;;29.00;70.50;;;;;;4928297;29;20433;-71
2022/07/30 11:45:22;;;;;;;15.73;13.87;;;29.00;71.80;;;;;;4923263;29;20495;-73
2022/07/30 11:47:50;;;;;;;18.40;16.00;;;28.80;73.70;;;;;;4914354;29;20415;-72
2022/07/30 11:50:20;;;;;;;17.10;15.70;;;28.60;71.00;;;;;;4917007;29;20502;-71
2022/07/30 11:52:54;;;;;;;15.30;14.10;;;28.30;73.50;;;;;;4913497;29;20950;-72
2022/07/30 11:55:33;;;;;;;127.87;113.80;;;28.30;76.50;;;;;;4918010;29;20411;-71
2022/07/30 11:58:00;;;;;;;42.43;38.23;;;28.40;74.90;;;;;;4931692;29;20839;-71
2022/07/30 12:00:46;;;;;;;18.67;17.03;;;28.40;75.40;;;;;;4916619;29;21002;-72
2022/07/30 12:03:17;;;;;;;16.43;14.93;;;28.40;75.90;;;;;;4912806;29;20879;-72
2022/07/30 12:05:44;;;;;;;13.73;12.30;;;28.50;74.70;;;;;;4915001;29;20414;-72
2022/07/30 12:08:11;;;;;;;14.03;12.83;;;28.50;71.90;;;;;;4915968;29;20422;-72
2022/07/30 12:10:39;;;;;;;12.23;11.40;;;28.50;70.20;;;;;;4915227;29;20458;-72
2022/07/30 12:13:15;;;;;;;13.53;12.33;;;28.50;71.30;;;;;;4915387;29;20434;-72
2022/07/30 12:15:45;;;;;;;12.50;11.50;;;28.50;71.90;;;;;;4913861;29;20466;-72
2022/07/30 12:18:12;;;;;;;12.40;11.30;;;28.60;71.10;;;;;;4915053;29;20916;-72
2022/07/30 12:20:41;;;;;;;12.77;11.73;;;28.70;70.80;;;;;;4915531;29;20488;-72
2022/07/30 12:23:12;;;;;;;93.23;83.67;;;28.70;71.60;;;;;;4915865;29;20458;-72
2022/07/30 12:25:39;;;;;;;17.80;16.13;;;28.50;77.00;;;;;;4929638;29;20777;-71
2022/07/30 12:28:05;;;;;;;10.47;9.57;;;28.40;72.30;;;;;;4915883;29;20517;-72
2022/07/30 12:30:31;;;;;;;10.67;9.67;;;28.00;73.90;;;;;;4915718;29;20891;-72
2022/07/30 12:32:56;;;;;;;10.10;9.10;;;27.90;72.80;;;;;;4915640;29;20431;-74
2022/07/30 12:35:22;;;;;;;10.07;9.30;;;27.90;72.00;;;;;;4931071;29;20170;-74
2022/07/30 12:38:04;;;;;;;9.90;8.93;;;28.00;72.40;;;;;;4915528;29;20174;-74